Terminal Aerodrome Forecast
Issued by NWS

Home | Current Version | Previous Version | Text Only | Print | Product List | Glossary On
Versions: 1 2 3 4 5 6 7 8 9 10 11 12
494
FTUS43 KPAH 040520
TAFCGI
TAF
KCGI 040520Z 0406/0506 32006KT P6SM SCT025 BKN040
      TEMPO 0409/0413 SCT040
     FM041300 32008KT P6SM SKC
     FM050000 VRB03KT P6SM SKC=

USA.gov is the U.S. government's official web portal to all federal, state and local government web resources and services.